sensor_id;sensor_type;location;lat;lon;timestamp;pressure;altitude;pressure_sealevel;temperature;humidity
13068;BME280;6600;51.362;6.686;2023-04-09T00:02:18;102123.03;;;9.49;99.79
13068;BME280;6600;51.362;6.686;2023-04-09T00:04:43;102123.72;;;9.43;99.62
13068;BME280;6600;51.362;6.686;2023-04-09T00:07:08;102117.41;;;9.36;100.00
13068;BME280;6600;51.362;6.686;2023-04-09T00:09:34;102122.41;;;9.39;100.00
13068;BME280;6600;51.362;6.686;2023-04-09T00:12:00;102117.69;;;9.41;100.00
13068;BME280;6600;51.362;6.686;2023-04-09T00:14:26;102117.06;;;9.39;100.00
13068;BME280;6600;51.362;6.686;2023-04-09T00:16:51;102120.72;;;9.38;100.00
13068;BME280;6600;51.362;6.686;2023-04-09T00:19:16;102120.72;;;9.38;100.00
13068;BME280;6600;51.362;6.686;2023-04-09T00:21:42;102123.44;;;9.30;100.00
13068;BME280;6600;51.362;6.686;2023-04-09T00:24:07;102120.28;;;9.27;100.00
13068;BME280;6600;51.362;6.686;2023-04-09T00:26:33;102117.78;;;9.25;100.00
13068;BME280;6600;51.362;6.686;2023-04-09T00:28:58;102119.13;;;9.21;100.00
13068;BME280;6600;51.362;6.686;2023-04-09T00:31:23;102109.75;;;9.17;100.00
13068;BME280;6600;51.362;6.686;2023-04-09T00:33:49;102117.50;;;9.12;100.00
13068;BME280;6600;51.362;6.686;2023-04-09T00:36:14;102119.19;;;9.05;100.00
13068;BME280;6600;51.362;6.686;2023-04-09T00:38:39;102117.19;;;8.99;100.00
13068;BME280;6600;51.362;6.686;2023-04-09T00:41:05;102113.19;;;8.95;100.00
13068;BME280;6600;51.362;6.686;2023-04-09T00:43:30;102118.53;;;8.87;100.00
13068;BME280;6600;51.362;6.686;2023-04-09T00:45:57;102121.91;;;8.81;100.00
13068;BME280;6600;51.362;6.686;2023-04-09T00:48:22;102119.22;;;8.73;100.00
13068;BME280;6600;51.362;6.686;2023-04-09T00:50:48;102112.25;;;8.63;100.00
13068;BME280;6600;51.362;6.686;2023-04-09T00:53:13;102123.59;;;8.57;100.00
13068;BME280;6600;51.362;6.686;2023-04-09T00:55:39;102112.56;;;8.52;100.00
13068;BME280;6600;51.362;6.686;2023-04-09T00:58:05;102115.44;;;8.43;100.00
13068;BME280;6600;51.362;6.686;2023-04-09T01:00:31;102117.59;;;8.39;100.00
13068;BME280;6600;51.362;6.686;2023-04-09T01:02:56;102114.59;;;8.34;100.00
13068;BME280;6600;51.362;6.686;2023-04-09T01:05:30;102107.38;;;8.27;100.00
13068;BME280;6600;51.362;6.686;2023-04-09T01:08:09;102114.22;;;8.21;100.00
13068;BME280;6600;51.362;6.686;2023-04-09T01:10:54;102119.56;;;8.13;100.00
13068;BME280;6600;51.362;6.686;2023-04-09T01:13:36;102118.53;;;8.14;100.00
13068;BME280;6600;51.362;6.686;2023-04-09T01:16:04;102112.88;;;8.09;100.00
13068;BME280;6600;51.362;6.686;2023-04-09T01:21:06;102113.03;;;8.07;100.00
13068;BME280;6600;51.362;6.686;2023-04-09T01:26:57;102109.00;;;8.03;100.00
13068;BME280;6600;51.362;6.686;2023-04-09T01:29:24;102109.88;;;7.96;100.00
13068;BME280;6600;51.362;6.686;2023-04-09T01:31:53;102109.88;;;7.96;100.00
13068;BME280;6600;51.362;6.686;2023-04-09T01:34:19;102108.19;;;7.95;100.00
13068;BME280;6600;51.362;6.686;2023-04-09T01:36:49;102096.16;;;7.91;100.00
13068;BME280;6600;51.362;6.686;2023-04-09T01:39:16;102103.84;;;7.86;100.00
13068;BME280;6600;51.362;6.686;2023-04-09T01:41:42;102093.97;;;7.86;100.00
13068;BME280;6600;51.362;6.686;2023-04-09T01:44:08;102095.31;;;7.90;100.00
13068;BME280;6600;51.362;6.686;2023-04-09T01:46:36;102099.66;;;7.83;100.00
13068;BME280;6600;51.362;6.686;2023-04-09T01:49:03;102089.50;;;7.79;100.00
13068;BME280;6600;51.362;6.686;2023-04-09T01:51:31;102089.50;;;7.79;100.00
13068;BME280;6600;51.362;6.686;2023-04-09T01:53:57;102091.78;;;7.74;100.00
13068;BME280;6600;51.362;6.686;2023-04-09T01:56:23;102092.78;;;7.73;100.00
13068;BME280;6600;51.362;6.686;2023-04-09T01:58:48;102098.13;;;7.73;100.00
13068;BME280;6600;51.362;6.686;2023-04-09T02:01:24;102089.47;;;7.71;100.00
13068;BME280;6600;51.362;6.686;2023-04-09T02:03:59;102092.13;;;7.71;100.00
13068;BME280;6600;51.362;6.686;2023-04-09T02:06:42;102085.81;;;7.72;100.00
13068;BME280;6600;51.362;6.686;2023-04-09T02:09:09;102087.16;;;7.76;100.00
13068;BME280;6600;51.362;6.686;2023-04-09T02:11:37;102088.78;;;7.77;100.00
13068;BME280;6600;51.362;6.686;2023-04-09T02:14:06;102087.63;;;7.79;100.00
13068;BME280;6600;51.362;6.686;2023-04-09T02:16:33;102090.16;;;7.81;100.00
13068;BME280;6600;51.362;6.686;2023-04-09T02:18:58;102089.31;;;7.80;100.00
13068;BME280;6600;51.362;6.686;2023-04-09T02:21:27;102087.16;;;7.84;100.00
13068;BME280;6600;51.362;6.686;2023-04-09T02:23:54;102085.78;;;7.80;100.00
13068;BME280;6600;51.362;6.686;2023-04-09T02:26:20;102081.47;;;7.79;100.00
13068;BME280;6600;51.362;6.686;2023-04-09T02:28:45;102078.78;;;7.71;100.00
13068;BME280;6600;51.362;6.686;2023-04-09T02:31:11;102074.63;;;7.68;100.00
13068;BME280;6600;51.362;6.686;2023-04-09T02:33:36;102079.44;;;7.65;100.00
13068;BME280;6600;51.362;6.686;2023-04-09T02:36:01;102078.09;;;7.60;100.00
13068;BME280;6600;51.362;6.686;2023-04-09T02:38:27;102073.09;;;7.57;100.00
13068;BME280;6600;51.362;6.686;2023-04-09T02:40:52;102078.75;;;7.54;100.00
13068;BME280;6600;51.362;6.686;2023-04-09T02:43:17;102066.75;;;7.50;100.00
13068;BME280;6600;51.362;6.686;2023-04-09T02:45:43;102071.56;;;7.47;100.00
13068;BME280;6600;51.362;6.686;2023-04-09T02:48:08;102062.88;;;7.45;100.00
13068;BME280;6600;51.362;6.686;2023-04-09T02:50:33;102074.03;;;7.48;100.00
13068;BME280;6600;51.362;6.686;2023-04-09T02:52:59;102063.72;;;7.45;100.00
13068;BME280;6600;51.362;6.686;2023-04-09T02:55:24;102060.38;;;7.43;100.00
13068;BME280;6600;51.362;6.686;2023-04-09T02:57:50;102057.38;;;7.46;100.00
13068;BME280;6600;51.362;6.686;2023-04-09T03:00:15;102051.91;;;7.48;100.00
13068;BME280;6600;51.362;6.686;2023-04-09T03:02:40;102056.41;;;7.47;100.00
13068;BME280;6600;51.362;6.686;2023-04-09T03:05:06;102055.56;;;7.47;100.00
13068;BME280;6600;51.362;6.686;2023-04-09T03:07:31;102058.38;;;7.45;100.00
13068;BME280;6600;51.362;6.686;2023-04-09T03:09:57;102052.19;;;7.45;100.00
13068;BME280;6600;51.362;6.686;2023-04-09T03:12:22;102053.38;;;7.42;100.00
13068;BME280;6600;51.362;6.686;2023-04-09T03:14:48;102051.19;;;7.38;100.00
13068;BME280;6600;51.362;6.686;2023-04-09T03:17:13;102054.03;;;7.36;100.00
13068;BME280;6600;51.362;6.686;2023-04-09T03:19:38;102044.50;;;7.26;100.00
13068;BME280;6600;51.362;6.686;2023-04-09T03:22:04;102054.28;;;7.17;100.00
13068;BME280;6600;51.362;6.686;2023-04-09T03:24:30;102046.25;;;7.09;100.00
13068;BME280;6600;51.362;6.686;2023-04-09T03:26:56;102050.19;;;6.97;100.00
13068;BME280;6600;51.362;6.686;2023-04-09T03:29:22;102055.50;;;6.89;100.00
13068;BME280;6600;51.362;6.686;2023-04-09T03:31:47;102044.78;;;6.81;100.00
13068;BME280;6600;51.362;6.686;2023-04-09T03:34:12;102042.44;;;6.78;100.00
13068;BME280;6600;51.362;6.686;2023-04-09T03:36:38;102042.75;;;6.75;100.00
13068;BME280;6600;51.362;6.686;2023-04-09T03:39:03;102044.72;;;6.73;100.00
13068;BME280;6600;51.362;6.686;2023-04-09T03:41:28;102041.09;;;6.74;100.00
13068;BME280;6600;51.362;6.686;2023-04-09T03:43:54;102052.06;;;6.71;100.00
13068;BME280;6600;51.362;6.686;2023-04-09T03:46:20;102038.59;;;6.72;100.00
13068;BME280;6600;51.362;6.686;2023-04-09T03:48:45;102041.09;;;6.74;100.00
13068;BME280;6600;51.362;6.686;2023-04-09T03:51:14;102042.44;;;6.78;100.00
13068;BME280;6600;51.362;6.686;2023-04-09T03:53:41;102049.28;;;6.80;100.00
13068;BME280;6600;51.362;6.686;2023-04-09T03:56:07;102044.47;;;6.84;100.00
13068;BME280;6600;51.362;6.686;2023-04-09T03:58:32;102051.94;;;6.80;100.00
13068;BME280;6600;51.362;6.686;2023-04-09T04:00:58;102054.59;;;6.72;100.00
13068;BME280;6600;51.362;6.686;2023-04-09T04:03:23;102048.72;;;6.69;100.00
13068;BME280;6600;51.362;6.686;2023-04-09T04:05:49;102058.03;;;6.65;100.00
13068;BME280;6600;51.362;6.686;2023-04-09T04:08:14;102047.97;;;6.58;100.00
13068;BME280;6600;51.362;6.686;2023-04-09T04:10:40;102055.63;;;6.53;100.00
13068;BME280;6600;51.362;6.686;2023-04-09T04:13:05;102052.28;;;6.51;100.00
13068;BME280;6600;51.362;6.686;2023-04-09T04:15:32;102050.53;;;6.42;100.00
13068;BME280;6600;51.362;6.686;2023-04-09T04:17:58;102043.19;;;6.36;100.00
13068;BME280;6600;51.362;6.686;2023-04-09T04:20:23;102043.81;;;6.30;100.00
13068;BME280;6600;51.362;6.686;2023-04-09T04:22:48;102044.13;;;6.27;100.00
13068;BME280;6600;51.362;6.686;2023-04-09T04:25:14;102040.47;;;6.28;100.00
13068;BME280;6600;51.362;6.686;2023-04-09T04:27:42;102047.16;;;6.32;100.00
13068;BME280;6600;51.362;6.686;2023-04-09T04:30:08;102045.63;;;6.30;100.00
13068;BME280;6600;51.362;6.686;2023-04-09T04:32:33;102046.94;;;6.26;100.00
13068;BME280;6600;51.362;6.686;2023-04-09T04:34:59;102049.22;;;6.21;100.00
13068;BME280;6600;51.362;6.686;2023-04-09T04:37:24;102052.03;;;6.19;100.00
13068;BME280;6600;51.362;6.686;2023-04-09T04:39:49;102045.22;;;6.17;100.00
13068;BME280;6600;51.362;6.686;2023-04-09T04:42:15;102049.00;;;6.14;100.00
13068;BME280;6600;51.362;6.686;2023-04-09T04:44:41;102053.34;;;6.15;100.00
13068;BME280;6600;51.362;6.686;2023-04-09T04:47:06;102062.31;;;6.14;100.00
13068;BME280;6600;51.362;6.686;2023-04-09T04:49:32;102054.31;;;6.14;100.00
13068;BME280;6600;51.362;6.686;2023-04-09T04:51:57;102052.66;;;6.13;100.00
13068;BME280;6600;51.362;6.686;2023-04-09T04:54:22;102045.97;;;6.09;100.00
13068;BME280;6600;51.362;6.686;2023-04-09T04:56:48;102055.91;;;6.07;100.00
13068;BME280;6600;51.362;6.686;2023-04-09T04:59:13;102055.56;;;6.02;100.00
13068;BME280;6600;51.362;6.686;2023-04-09T05:01:38;102052.50;;;5.97;100.00
13068;BME280;6600;51.362;6.686;2023-04-09T05:04:04;102055.34;;;5.95;100.00
13068;BME280;6600;51.362;6.686;2023-04-09T05:06:29;102055.03;;;5.98;100.00
13068;BME280;6600;51.362;6.686;2023-04-09T05:08:55;102052.50;;;5.97;100.00
13068;BME280;6600;51.362;6.686;2023-04-09T05:11:23;102055.03;;;5.98;100.00
13068;BME280;6600;51.362;6.686;2023-04-09T05:13:48;102055.88;;;5.99;100.00
13068;BME280;6600;51.362;6.686;2023-04-09T05:16:15;102061.72;;;6.02;100.00
13068;BME280;6600;51.362;6.686;2023-04-09T05:18:41;102052.19;;;6.00;100.00
13068;BME280;6600;51.362;6.686;2023-04-09T05:21:07;102059.50;;;5.98;100.00
13068;BME280;6600;51.362;6.686;2023-04-09T05:23:32;102059.81;;;5.95;100.00
13068;BME280;6600;51.362;6.686;2023-04-09T05:25:57;102057.28;;;5.93;100.00
13068;BME280;6600;51.362;6.686;2023-04-09T05:28:23;102058.13;;;5.94;100.00
13068;BME280;6600;51.362;6.686;2023-04-09T05:30:48;102059.81;;;5.95;100.00
13068;BME280;6600;51.362;6.686;2023-04-09T05:33:13;102057.03;;;5.96;100.00
13068;BME280;6600;51.362;6.686;2023-04-09T05:35:39;102060.34;;;5.98;100.00
13068;BME280;6600;51.362;6.686;2023-04-09T05:38:04;102051.91;;;6.03;100.00
13068;BME280;6600;51.362;6.686;2023-04-09T05:40:30;102058.88;;;6.04;100.00
13068;BME280;6600;51.362;6.686;2023-04-09T05:42:55;102062.91;;;6.08;100.00
13068;BME280;6600;51.362;6.686;2023-04-09T05:45:20;102058.31;;;6.10;100.00
13068;BME280;6600;51.362;6.686;2023-04-09T05:47:46;102057.69;;;6.16;100.00
13068;BME280;6600;51.362;6.686;2023-04-09T05:50:12;102057.19;;;6.21;100.00
13068;BME280;6600;51.362;6.686;2023-04-09T05:52:37;102054.47;;;6.30;100.00
13068;BME280;6600;51.362;6.686;2023-04-09T05:55:02;102055.19;;;6.40;100.00
13068;BME280;6600;51.362;6.686;2023-04-09T05:57:29;102060.28;;;6.51;100.00
13068;BME280;6600;51.362;6.686;2023-04-09T05:59:55;102057.66;;;6.59;100.00
13068;BME280;6600;51.362;6.686;2023-04-09T06:02:21;102057.38;;;6.71;100.00
13068;BME280;6600;51.362;6.686;2023-04-09T06:04:46;102060.44;;;6.84;100.00
13068;BME280;6600;51.362;6.686;2023-04-09T06:07:11;102058.19;;;6.97;100.00
13068;BME280;6600;51.362;6.686;2023-04-09T06:09:37;102055.25;;;7.08;100.00
13068;BME280;6600;51.362;6.686;2023-04-09T06:12:02;102057.13;;;7.16;100.00
13068;BME280;6600;51.362;6.686;2023-04-09T06:14:28;102050.81;;;7.25;100.00
13068;BME280;6600;51.362;6.686;2023-04-09T06:16:53;102056.03;;;7.34;100.00
13068;BME280;6600;51.362;6.686;2023-04-09T06:19:19;102057.38;;;7.46;100.00
13068;BME280;6600;51.362;6.686;2023-04-09T06:21:44;102058.72;;;7.58;100.00
13068;BME280;6600;51.362;6.686;2023-04-09T06:24:10;102062.13;;;7.77;100.00
13068;BME280;6600;51.362;6.686;2023-04-09T06:26:35;102059.47;;;7.85;100.00
13068;BME280;6600;51.362;6.686;2023-04-09T06:29:01;102068.81;;;8.05;100.00
13068;BME280;6600;51.362;6.686;2023-04-09T06:31:26;102072.19;;;8.23;100.00
13068;BME280;6600;51.362;6.686;2023-04-09T06:33:52;102067.19;;;8.44;100.00
13068;BME280;6600;51.362;6.686;2023-04-09T06:36:18;102065.63;;;8.66;100.00
13068;BME280;6600;51.362;6.686;2023-04-09T06:38:44;102066.44;;;8.83;98.11
13068;BME280;6600;51.362;6.686;2023-04-09T06:41:09;102073.38;;;9.00;95.39
13068;BME280;6600;51.362;6.686;2023-04-09T06:43:36;102074.69;;;9.20;94.88
13068;BME280;6600;51.362;6.686;2023-04-09T06:46:02;102079.75;;;9.38;93.20
13068;BME280;6600;51.362;6.686;2023-04-09T06:48:27;102080.53;;;9.54;91.24
13068;BME280;6600;51.362;6.686;2023-04-09T06:50:53;102082.41;;;9.77;91.61
13068;BME280;6600;51.362;6.686;2023-04-09T06:53:18;102089.66;;;9.91;90.57
13068;BME280;6600;51.362;6.686;2023-04-09T06:55:44;102088.00;;;9.90;87.04
13068;BME280;6600;51.362;6.686;2023-04-09T06:58:09;102084.81;;;10.17;87.69
13068;BME280;6600;51.362;6.686;2023-04-09T07:00:35;102093.94;;;10.31;87.97
13068;BME280;6600;51.362;6.686;2023-04-09T07:03:00;102089.13;;;10.26;85.85
13068;BME280;6600;51.362;6.686;2023-04-09T07:05:26;102087.75;;;10.30;86.18
13068;BME280;6600;51.362;6.686;2023-04-09T07:07:51;102092.00;;;10.39;86.26
13068;BME280;6600;51.362;6.686;2023-04-09T07:10:16;102091.00;;;10.55;85.73
13068;BME280;6600;51.362;6.686;2023-04-09T07:12:42;102089.41;;;10.69;85.43
13068;BME280;6600;51.362;6.686;2023-04-09T07:15:07;102092.34;;;10.74;84.51
13068;BME280;6600;51.362;6.686;2023-04-09T07:17:34;102090.69;;;10.73;84.42
13068;BME280;6600;51.362;6.686;2023-04-09T07:20:00;102091.03;;;10.70;83.08
13068;BME280;6600;51.362;6.686;2023-04-09T07:22:27;102087.91;;;10.81;84.22
13068;BME280;6600;51.362;6.686;2023-04-09T07:24:52;102096.97;;;10.80;82.99
13068;BME280;6600;51.362;6.686;2023-04-09T07:27:19;102096.91;;;10.88;82.92
13068;BME280;6600;51.362;6.686;2023-04-09T07:29:45;102101.63;;;10.86;83.17
13068;BME280;6600;51.362;6.686;2023-04-09T07:32:10;102095.59;;;10.84;84.61
13068;BME280;6600;51.362;6.686;2023-04-09T07:34:36;102094.59;;;10.85;83.60
13068;BME280;6600;51.362;6.686;2023-04-09T07:37:02;102096.81;;;10.96;83.70
13068;BME280;6600;51.362;6.686;2023-04-09T07:39:27;102093.09;;;10.97;83.55
13068;BME280;6600;51.362;6.686;2023-04-09T07:41:52;102094.78;;;11.12;83.06
13068;BME280;6600;51.362;6.686;2023-04-09T07:44:18;102103.66;;;11.13;82.54
13068;BME280;6600;51.362;6.686;2023-04-09T07:46:43;102105.88;;;11.24;83.21
13068;BME280;6600;51.362;6.686;2023-04-09T07:49:08;102102.25;;;11.32;82.65
13068;BME280;6600;51.362;6.686;2023-04-09T07:51:34;102111.44;;;11.37;81.66
13068;BME280;6600;51.362;6.686;2023-04-09T07:53:59;102106.41;;;11.34;81.40
13068;BME280;6600;51.362;6.686;2023-04-09T07:56:24;102104.09;;;11.46;82.48
13068;BME280;6600;51.362;6.686;2023-04-09T07:58:50;102104.16;;;11.52;82.21
13068;BME280;6600;51.362;6.686;2023-04-09T08:01:15;102106.75;;;11.60;82.43
13068;BME280;6600;51.362;6.686;2023-04-09T08:03:41;102101.63;;;11.65;82.19
13068;BME280;6600;51.362;6.686;2023-04-09T08:06:06;102098.94;;;11.65;81.45
13068;BME280;6600;51.362;6.686;2023-04-09T08:08:32;102091.94;;;11.64;81.43
13068;BME280;6600;51.362;6.686;2023-04-09T08:10:58;102102.09;;;11.84;81.44
13068;BME280;6600;51.362;6.686;2023-04-09T08:13:23;102103.50;;;12.01;82.38
13068;BME280;6600;51.362;6.686;2023-04-09T08:15:52;102104.47;;;12.14;80.89
13068;BME280;6600;51.362;6.686;2023-04-09T08:18:17;102103.25;;;12.17;79.78
13068;BME280;6600;51.362;6.686;2023-04-09T08:20:42;102094.69;;;12.28;78.76
13068;BME280;6600;51.362;6.686;2023-04-09T08:23:10;102092.75;;;12.43;78.48
13068;BME280;6600;51.362;6.686;2023-04-09T08:25:35;102099.25;;;12.55;77.98
13068;BME280;6600;51.362;6.686;2023-04-09T08:28:01;102093.75;;;12.63;76.82
13068;BME280;6600;51.362;6.686;2023-04-09T08:30:26;102097.19;;;12.79;76.79
13068;BME280;6600;51.362;6.686;2023-04-09T08:32:51;102085.63;;;12.85;74.87
13068;BME280;6600;51.362;6.686;2023-04-09T08:35:17;102090.22;;;12.91;75.68
13068;BME280;6600;51.362;6.686;2023-04-09T08:37:43;102103.50;;;12.99;75.17
13068;BME280;6600;51.362;6.686;2023-04-09T08:40:08;102102.72;;;13.05;72.66
13068;BME280;6600;51.362;6.686;2023-04-09T08:42:35;102097.47;;;12.97;71.79
13068;BME280;6600;51.362;6.686;2023-04-09T08:45:05;102095.75;;;13.17;73.13
13068;BME280;6600;51.362;6.686;2023-04-09T08:47:31;102097.50;;;13.31;72.64
13068;BME280;6600;51.362;6.686;2023-04-09T08:49:58;102098.03;;;13.54;74.29
13068;BME280;6600;51.362;6.686;2023-04-09T08:52:31;102096.84;;;13.77;72.55
13068;BME280;6600;51.362;6.686;2023-04-09T08:54:56;102101.81;;;13.80;71.28
13068;BME280;6600;51.362;6.686;2023-04-09T08:57:22;102099.41;;;13.98;70.92
13068;BME280;6600;51.362;6.686;2023-04-09T08:59:47;102096.94;;;14.03;71.74
13068;BME280;6600;51.362;6.686;2023-04-09T09:02:13;102095.06;;;14.10;71.47
13068;BME280;6600;51.362;6.686;2023-04-09T09:04:48;102095.47;;;14.13;69.09
13068;BME280;6600;51.362;6.686;2023-04-09T09:07:15;102101.47;;;13.96;67.39
13068;BME280;6600;51.362;6.686;2023-04-09T09:12:37;102095.28;;;14.22;68.08
13068;BME280;6600;51.362;6.686;2023-04-09T09:15:04;102092.41;;;14.23;67.42
13068;BME280;6600;51.362;6.686;2023-04-09T09:17:30;102083.69;;;14.34;67.46
13068;BME280;6600;51.362;6.686;2023-04-09T09:19:56;102090.31;;;14.18;67.04
13068;BME280;6600;51.362;6.686;2023-04-09T09:22:23;102082.44;;;14.24;67.43
13068;BME280;6600;51.362;6.686;2023-04-09T09:24:50;102080.34;;;14.32;68.51
13068;BME280;6600;51.362;6.686;2023-04-09T09:27:36;102086.19;;;14.49;69.27
13068;BME280;6600;51.362;6.686;2023-04-09T09:30:04;102084.97;;;14.58;66.28
13068;BME280;6600;51.362;6.686;2023-04-09T09:32:33;102077.91;;;14.50;65.26
13068;BME280;6600;51.362;6.686;2023-04-09T09:35:03;102083.72;;;14.60;65.60
13068;BME280;6600;51.362;6.686;2023-04-09T09:37:29;102070.84;;;14.62;66.17
13068;BME280;6600;51.362;6.686;2023-04-09T09:39:55;102076.84;;;14.78;64.33
13068;BME280;6600;51.362;6.686;2023-04-09T09:42:21;102075.13;;;14.96;65.70
13068;BME280;6600;51.362;6.686;2023-04-09T09:44:47;102073.25;;;15.10;66.24
13068;BME280;6600;51.362;6.686;2023-04-09T09:47:13;102073.84;;;15.18;65.94
13068;BME280;6600;51.362;6.686;2023-04-09T09:49:41;102072.81;;;15.20;64.89
13068;BME280;6600;51.362;6.686;2023-04-09T09:52:08;102072.34;;;15.29;63.06
13068;BME280;6600;51.362;6.686;2023-04-09T09:54:41;102073.63;;;15.20;64.54
13068;BME280;6600;51.362;6.686;2023-04-09T09:57:09;102062.84;;;15.20;63.99
13068;BME280;6600;51.362;6.686;2023-04-09T09:59:40;102069.44;;;15.31;63.32
13068;BME280;6600;51.362;6.686;2023-04-09T10:02:12;102063.16;;;15.43;62.92
13068;BME280;6600;51.362;6.686;2023-04-09T10:04:40;102061.09;;;15.32;61.95
13068;BME280;6600;51.362;6.686;2023-04-09T10:07:07;102063.81;;;15.32;61.50
13068;BME280;6600;51.362;6.686;2023-04-09T10:09:34;102052.16;;;15.38;61.90
13068;BME280;6600;51.362;6.686;2023-04-09T10:12:03;102057.34;;;15.40;60.19
13068;BME280;6600;51.362;6.686;2023-04-09T10:14:31;102050.59;;;15.62;61.94
13068;BME280;6600;51.362;6.686;2023-04-09T10:16:57;102054.72;;;15.71;60.10
13068;BME280;6600;51.362;6.686;2023-04-09T10:19:23;102048.03;;;15.74;60.18
13068;BME280;6600;51.362;6.686;2023-04-09T10:24:20;102048.34;;;15.90;59.47
13068;BME280;6600;51.362;6.686;2023-04-09T10:26:46;102053.22;;;15.82;58.44
13068;BME280;6600;51.362;6.686;2023-04-09T10:29:13;102048.34;;;15.90;58.95
13068;BME280;6600;51.362;6.686;2023-04-09T10:32:03;102045.28;;;16.11;58.97
13068;BME280;6600;51.362;6.686;2023-04-09T10:34:28;102048.13;;;16.23;58.52
13068;BME280;6600;51.362;6.686;2023-04-09T10:36:55;102040.94;;;16.35;58.46
13068;BME280;6600;51.362;6.686;2023-04-09T10:39:26;102033.53;;;16.24;58.33
13068;BME280;6600;51.362;6.686;2023-04-09T10:41:53;102028.94;;;16.25;57.66
13068;BME280;6600;51.362;6.686;2023-04-09T10:44:23;102031.44;;;16.26;56.20
13068;BME280;6600;51.362;6.686;2023-04-09T10:46:52;102033.13;;;16.27;57.21
13068;BME280;6600;51.362;6.686;2023-04-09T10:49:19;102030.28;;;16.40;57.25
13068;BME280;6600;51.362;6.686;2023-04-09T10:52:06;102030.56;;;16.32;54.99
13068;BME280;6600;51.362;6.686;2023-04-09T10:57:09;102016.63;;;16.53;55.81
13068;BME280;6600;51.362;6.686;2023-04-09T10:59:43;102022.03;;;16.53;55.68
13068;BME280;6600;51.362;6.686;2023-04-09T11:08:02;102010.81;;;16.56;55.27
13068;BME280;6600;51.362;6.686;2023-04-09T11:10:28;102022.00;;;16.60;54.74
13068;BME280;6600;51.362;6.686;2023-04-09T11:12:53;102006.16;;;16.63;55.68
13068;BME280;6600;51.362;6.686;2023-04-09T11:15:19;102009.03;;;16.69;55.44
13068;BME280;6600;51.362;6.686;2023-04-09T11:17:46;102008.56;;;16.72;55.94
13068;BME280;6600;51.362;6.686;2023-04-09T11:20:13;101996.38;;;16.81;54.73
13068;BME280;6600;51.362;6.686;2023-04-09T11:22:39;101996.38;;;16.81;54.96
13068;BME280;6600;51.362;6.686;2023-04-09T11:25:05;101987.91;;;16.52;52.66
13068;BME280;6600;51.362;6.686;2023-04-09T11:27:36;101998.81;;;16.21;54.32
13068;BME280;6600;51.362;6.686;2023-04-09T11:30:01;101996.13;;;16.21;55.60
13068;BME280;6600;51.362;6.686;2023-04-09T11:32:29;101990.13;;;16.19;56.55
13068;BME280;6600;51.362;6.686;2023-04-09T11:34:55;101996.88;;;16.28;57.67
13068;BME280;6600;51.362;6.686;2023-04-09T11:37:22;101987.03;;;16.58;56.80
13068;BME280;6600;51.362;6.686;2023-04-09T11:39:48;101974.25;;;16.47;54.67
13068;BME280;6600;51.362;6.686;2023-04-09T11:42:15;101981.72;;;16.70;56.92
13068;BME280;6600;51.362;6.686;2023-04-09T11:44:43;101988.47;;;17.15;56.99
13068;BME280;6600;51.362;6.686;2023-04-09T11:47:09;101981.75;;;17.18;54.88
13068;BME280;6600;51.362;6.686;2023-04-09T11:49:35;101979.50;;;17.33;56.75
13068;BME280;6600;51.362;6.686;2023-04-09T11:52:01;101982.81;;;17.17;54.58
13068;BME280;6600;51.362;6.686;2023-04-09T11:54:32;101969.56;;;17.27;54.26
13068;BME280;6600;51.362;6.686;2023-04-09T11:56:58;101977.09;;;17.25;53.69
13068;BME280;6600;51.362;6.686;2023-04-09T11:59:23;101967.25;;;17.42;55.89
13068;BME280;6600;51.362;6.686;2023-04-09T12:01:50;101964.34;;;17.44;55.68
13068;BME280;6600;51.362;6.686;2023-04-09T12:04:21;101973.28;;;17.44;54.72
13068;BME280;6600;51.362;6.686;2023-04-09T12:06:47;101972.78;;;17.65;53.67
13068;BME280;6600;51.362;6.686;2023-04-09T12:09:13;101973.59;;;17.36;52.34
13068;BME280;6600;51.362;6.686;2023-04-09T12:11:42;101976.22;;;17.43;53.89
13068;BME280;6600;51.362;6.686;2023-04-09T12:14:11;101970.41;;;17.57;53.50
13068;BME280;6600;51.362;6.686;2023-04-09T12:16:37;101964.78;;;17.71;52.93
13068;BME280;6600;51.362;6.686;2023-04-09T12:19:06;101960.09;;;17.78;54.13
13068;BME280;6600;51.362;6.686;2023-04-09T12:21:48;101963.38;;;17.80;54.30
13068;BME280;6600;51.362;6.686;2023-04-09T12:24:18;101961.75;;;17.79;54.22
13068;BME280;6600;51.362;6.686;2023-04-09T12:26:47;101960.81;;;17.85;53.68
13068;BME280;6600;51.362;6.686;2023-04-09T12:29:17;101961.94;;;17.65;54.29
13068;BME280;6600;51.362;6.686;2023-04-09T12:31:43;101962.13;;;17.82;54.08
13068;BME280;6600;51.362;6.686;2023-04-09T12:34:09;101959.75;;;17.86;53.22
13068;BME280;6600;51.362;6.686;2023-04-09T12:36:34;101960.69;;;17.91;53.85
13068;BME280;6600;51.362;6.686;2023-04-09T12:39:00;101960.59;;;17.98;55.28
13068;BME280;6600;51.362;6.686;2023-04-09T12:41:25;101969.56;;;18.10;54.06
13068;BME280;6600;51.362;6.686;2023-04-09T12:43:51;101962.72;;;18.19;53.81
13068;BME280;6600;51.362;6.686;2023-04-09T12:46:19;101969.81;;;18.32;52.63
13068;BME280;6600;51.362;6.686;2023-04-09T12:48:45;101968.97;;;18.31;53.27
13068;BME280;6600;51.362;6.686;2023-04-09T12:51:11;101962.72;;;18.19;51.68
13068;BME280;6600;51.362;6.686;2023-04-09T12:53:37;101962.38;;;18.15;53.47
13068;BME280;6600;51.362;6.686;2023-04-09T12:56:02;101967.44;;;17.89;52.08
13068;BME280;6600;51.362;6.686;2023-04-09T12:58:28;101958.19;;;17.66;54.56
13068;BME280;6600;51.362;6.686;2023-04-09T13:00:53;101960.91;;;17.48;54.04
13068;BME280;6600;51.362;6.686;2023-04-09T13:03:21;101957.97;;;17.50;53.87
13068;BME280;6600;51.362;6.686;2023-04-09T13:05:46;101949.81;;;17.68;52.74
13068;BME280;6600;51.362;6.686;2023-04-09T13:08:12;101947.72;;;17.82;53.14
13068;BME280;6600;51.362;6.686;2023-04-09T13:10:37;101951.03;;;17.95;52.99
13068;BME280;6600;51.362;6.686;2023-04-09T13:13:03;101950.31;;;18.00;52.04
13068;BME280;6600;51.362;6.686;2023-04-09T13:15:28;101944.78;;;18.18;53.33
13068;BME280;6600;51.362;6.686;2023-04-09T13:17:54;101956.13;;;18.15;52.05